Time,TemperatureF,DewpointF,PressureIn,WindDirection,WindDirectionDegrees,WindSpeedMPH,WindSpeedGustMPH,Humidity,HourlyPrecipIn,Conditions,Clouds,dailyrainin,SoftwareType,DateUTC
2013-05-25 00:05:00,39.9,36.0,30.44,NE,49,2.0,3.0,86,0.00,,,0.00,weatherlink.com 1.10,2013-05-25 05:05:00,
2013-05-25 00:20:00,39.5,36.0,30.44,NNE,31,3.0,4.0,87,0.00,,,0.00,weatherlink.com 1.10,2013-05-25 05:20:00,
2013-05-25 00:35:00,39.3,36.0,30.44,NNE,30,0.0,2.0,88,0.00,,,0.00,weatherlink.com 1.10,2013-05-25 05:35:00,
2013-05-25 00:50:00,39.2,36.0,30.43,NNE,30,0.0,0.0,88,0.00,,,0.00,weatherlink.com 1.10,2013-05-25 05:50:00,
2013-05-25 01:05:00,37.7,35.0,30.43,NNE,31,0.0,0.0,89,0.00,,,0.00,weatherlink.com 1.10,2013-05-25 06:05:00,
2013-05-25 01:20:00,36.9,35.0,30.42,NNE,30,0.0,0.0,91,0.00,,,0.00,weatherlink.com 1.10,2013-05-25 06:20:00,
2013-05-25 01:35:00,36.4,35.0,30.42,NNE,30,0.0,0.0,93,0.00,,,0.00,weatherlink.com 1.10,2013-05-25 06:35:00,
2013-05-25 01:50:00,36.8,35.0,30.41,NNE,31,0.0,2.0,94,0.00,,,0.00,weatherlink.com 1.10,2013-05-25 06:50:00,
2013-05-25 02:05:00,37.0,36.0,30.41,NNE,30,0.0,1.0,94,0.00,,,0.00,weatherlink.com 1.10,2013-05-25 07:05:00,
2013-05-25 02:20:00,38.0,37.0,30.41,NNE,31,0.0,1.0,94,0.00,,,0.00,weatherlink.com 1.10,2013-05-25 07:20:00,
2013-05-25 02:35:00,38.4,37.0,30.40,SE,128,2.0,3.0,94,0.00,,,0.00,weatherlink.com 1.10,2013-05-25 07:35:00,
2013-05-25 02:51:00,38.8,37.0,30.39,SSE,147,1.0,4.0,94,0.00,,,0.00,weatherlink.com 1.10,2013-05-25 07:51:00,
2013-05-25 03:06:00,39.3,38.0,30.39,SSE,147,0.0,1.0,94,0.00,,,0.00,weatherlink.com 1.10,2013-05-25 08:06:00,
2013-05-25 03:21:00,39.1,38.0,30.38,SSE,147,0.0,2.0,94,0.00,,,0.00,weatherlink.com 1.10,2013-05-25 08:21:00,
2013-05-25 03:36:00,38.7,37.0,30.39,SSE,147,0.0,0.0,93,0.00,,,0.00,weatherlink.com 1.10,2013-05-25 08:36:00,
2013-05-25 03:51:00,38.7,37.0,30.39,SSE,147,0.0,0.0,93,0.00,,,0.00,weatherlink.com 1.10,2013-05-25 08:51:00,
2013-05-25 04:06:00,38.7,37.0,30.39,SSE,147,0.0,0.0,94,0.00,,,0.00,weatherlink.com 1.10,2013-05-25 09:06:00,
2013-05-25 04:21:00,39.0,38.0,30.41,SSE,147,2.0,3.0,94,0.00,,,0.00,weatherlink.com 1.10,2013-05-25 09:21:00,
2013-05-25 04:36:00,39.8,38.0,30.42,West,260,0.0,3.0,94,0.00,,,0.00,weatherlink.com 1.10,2013-05-25 09:36:00,
2013-05-25 04:51:00,40.4,39.0,30.42,West,260,0.0,0.0,93,0.00,,,0.00,weatherlink.com 1.10,2013-05-25 09:51:00,
2013-05-25 05:06:00,40.9,39.0,30.43,West,260,0.0,2.0,93,0.00,,,0.00,weatherlink.com 1.10,2013-05-25 10:06:00,
2013-05-25 05:21:00,41.1,39.0,30.43,NE,47,0.0,3.0,93,0.00,,,0.00,weatherlink.com 1.10,2013-05-25 10:21:00,
2013-05-25 05:36:00,41.1,39.0,30.44,NE,47,2.0,5.0,92,0.00,,,0.00,weatherlink.com 1.10,2013-05-25 10:36:00,
2013-05-25 05:51:00,41.6,39.0,30.44,NE,41,0.0,3.0,91,0.00,,,0.00,weatherlink.com 1.10,2013-05-25 10:51:00,
2013-05-25 06:06:00,41.7,40.0,30.46,West,261,0.0,4.0,92,0.00,,,0.00,weatherlink.com 1.10,2013-05-25 11:06:00,
2013-05-25 06:21:00,42.2,40.0,30.45,West,260,0.0,4.0,92,0.00,,,0.00,weatherlink.com 1.10,2013-05-25 11:21:00,
2013-05-25 06:36:00,42.5,40.0,30.44,NE,53,0.0,5.0,91,0.00,,,0.00,weatherlink.com 1.10,2013-05-25 11:36:00,
2013-05-25 06:51:00,43.2,41.0,30.46,NE,52,0.0,2.0,91,0.00,,,0.00,weatherlink.com 1.10,2013-05-25 11:51:00,
2013-05-25 07:06:00,43.9,41.0,30.45,NE,52,0.0,2.0,89,0.00,,,0.00,weatherlink.com 1.10,2013-05-25 12:06:00,
2013-05-25 07:21:00,44.9,41.0,30.44,NE,52,1.0,1.0,87,0.00,,,0.00,weatherlink.com 1.10,2013-05-25 12:21:00,
2013-05-25 07:36:00,45.6,42.0,30.45,NE,52,1.0,3.0,87,0.00,,,0.00,weatherlink.com 1.10,2013-05-25 12:36:00,
2013-05-25 07:51:00,46.9,42.0,30.46,NE,52,0.0,1.0,84,0.00,,,0.00,weatherlink.com 1.10,2013-05-25 12:51:00,
2013-05-25 08:07:00,47.6,41.0,30.45,East,89,3.0,7.0,79,0.00,,,0.00,weatherlink.com 1.10,2013-05-25 13:07:00,
2013-05-25 08:21:00,48.2,41.0,30.46,ENE,70,0.0,5.0,76,0.00,,,0.00,weatherlink.com 1.10,2013-05-25 13:21:00,
2013-05-25 08:36:00,48.7,42.0,30.45,East,90,1.0,4.0,77,0.00,,,0.00,weatherlink.com 1.10,2013-05-25 13:36:00,
2013-05-25 08:51:00,49.0,41.0,30.46,ESE,106,1.0,5.0,75,0.00,,,0.00,weatherlink.com 1.10,2013-05-25 13:51:00,
2013-05-25 09:06:00,49.7,43.0,30.47,South,174,0.0,3.0,77,0.00,,,0.00,weatherlink.com 1.10,2013-05-25 14:06:00,
2013-05-25 09:21:00,50.4,43.0,30.46,SSW,195,1.0,2.0,75,0.00,,,0.00,weatherlink.com 1.10,2013-05-25 14:21:00,
2013-05-25 09:36:00,51.2,43.0,30.46,SSW,195,3.0,3.0,74,0.00,,,0.00,weatherlink.com 1.10,2013-05-25 14:36:00,
2013-05-25 09:51:00,50.7,43.0,30.46,SSE,151,0.0,2.0,75,0.00,,,0.00,weatherlink.com 1.10,2013-05-25 14:51:00,
2013-05-25 10:06:00,51.8,44.0,30.45,ENE,77,1.0,2.0,75,0.00,,,0.00,weatherlink.com 1.10,2013-05-25 15:06:00,
2013-05-25 10:21:00,51.8,44.0,30.45,ENE,77,0.0,2.0,74,0.00,,,0.00,weatherlink.com 1.10,2013-05-25 15:21:00,
2013-05-25 10:36:00,51.9,44.0,30.45,ENE,77,0.0,1.0,74,0.00,,,0.00,weatherlink.com 1.10,2013-05-25 15:36:00,
2013-05-25 10:51:00,52.5,45.0,30.45,ENE,77,0.0,1.0,75,0.00,,,0.00,weatherlink.com 1.10,2013-05-25 15:51:00,
2013-05-25 11:06:00,52.5,45.0,30.45,SSW,203,0.0,2.0,76,0.00,,,0.00,weatherlink.com 1.10,2013-05-25 16:06:00,
2013-05-25 11:21:00,52.8,45.0,30.46,SSW,203,0.0,2.0,76,0.00,,,0.00,weatherlink.com 1.10,2013-05-25 16:21:00,
2013-05-25 11:37:00,53.1,45.0,30.46,NNW,334,3.0,4.0,74,0.00,,,0.00,weatherlink.com 1.10,2013-05-25 16:37:00,
2013-05-25 11:52:00,53.1,45.0,30.47,NNW,338,5.0,6.0,75,0.00,,,0.00,weatherlink.com 1.10,2013-05-25 16:52:00,
2013-05-25 12:07:00,52.7,45.0,30.47,NNW,329,5.0,7.0,76,0.00,,,0.00,weatherlink.com 1.10,2013-05-25 17:07:00,
2013-05-25 12:22:00,52.6,45.0,30.46,NNW,332,5.0,7.0,76,0.00,,,0.00,weatherlink.com 1.10,2013-05-25 17:22:00,
2013-05-25 12:37:00,53.4,45.0,30.45,North,350,2.0,6.0,74,0.00,,,0.00,weatherlink.com 1.10,2013-05-25 17:37:00,
2013-05-25 12:52:00,53.6,46.0,30.45,NNW,346,4.0,5.0,74,0.00,,,0.00,weatherlink.com 1.10,2013-05-25 17:52:00,
2013-05-25 13:07:00,53.7,45.0,30.45,NNW,343,4.0,5.0,73,0.00,,,0.00,weatherlink.com 1.10,2013-05-25 18:07:00,
2013-05-25 13:22:00,53.7,45.0,30.43,NNW,343,0.0,5.0,72,0.00,,,0.00,weatherlink.com 1.10,2013-05-25 18:22:00,
2013-05-25 13:37:00,54.0,46.0,30.42,NNW,343,0.0,3.0,73,0.00,,,0.00,weatherlink.com 1.10,2013-05-25 18:37:00,
2013-05-25 13:52:00,54.3,47.0,30.41,ENE,60,4.0,4.0,75,0.00,,,0.00,weatherlink.com 1.10,2013-05-25 18:52:00,
2013-05-25 14:07:00,55.0,48.0,30.41,North,5,2.0,4.0,76,0.00,,,0.00,weatherlink.com 1.10,2013-05-25 19:07:00,
2013-05-25 14:22:00,55.5,47.0,30.41,ENE,70,0.0,3.0,74,0.00,,,0.00,weatherlink.com 1.10,2013-05-25 19:22:00,
2013-05-25 14:37:00,57.6,48.0,30.40,North,353,1.0,5.0,71,0.00,,,0.00,weatherlink.com 1.10,2013-05-25 19:37:00,
2013-05-25 14:52:00,56.8,48.0,30.40,ESE,111,1.0,4.0,73,0.00,,,0.00,weatherlink.com 1.10,2013-05-25 19:52:00,
2013-05-25 15:07:00,58.3,49.0,30.39,East,92,0.0,2.0,72,0.00,,,0.00,weatherlink.com 1.10,2013-05-25 20:07:00,
2013-05-25 15:22:00,58.4,49.0,30.39,East,93,2.0,2.0,70,0.00,,,0.00,weatherlink.com 1.10,2013-05-25 20:22:00,
2013-05-25 15:37:00,58.2,49.0,30.38,East,85,0.0,3.0,71,0.00,,,0.00,weatherlink.com 1.10,2013-05-25 20:37:00,
2013-05-25 15:52:00,59.0,49.0,30.37,NE,44,2.0,8.0,70,0.00,,,0.00,weatherlink.com 1.10,2013-05-25 20:52:00,
2013-05-25 16:07:00,58.7,49.0,30.36,East,100,3.0,7.0,69,0.00,,,0.00,weatherlink.com 1.10,2013-05-25 21:07:00,
2013-05-25 16:22:00,59.0,49.0,30.35,NE,34,3.0,8.0,70,0.00,,,0.00,weatherlink.com 1.10,2013-05-25 21:22:00,
2013-05-25 16:37:00,59.1,49.0,30.35,NE,53,5.0,12.0,70,0.00,,,0.00,weatherlink.com 1.10,2013-05-25 21:37:00,
2013-05-25 16:52:00,59.3,50.0,30.35,ENE,62,5.0,7.0,71,0.00,,,0.00,weatherlink.com 1.10,2013-05-25 21:52:00,
2013-05-25 17:07:00,59.8,50.0,30.36,NNW,336,5.0,8.0,71,0.00,,,0.00,weatherlink.com 1.10,2013-05-25 22:07:00,
2013-05-25 17:22:00,59.2,51.0,30.37,NNE,16,4.0,7.0,73,0.00,,,0.00,weatherlink.com 1.10,2013-05-25 22:22:00,
2013-05-25 17:37:00,58.3,49.0,30.37,NNW,347,5.0,10.0,71,0.00,,,0.00,weatherlink.com 1.10,2013-05-25 22:37:00,
2013-05-25 17:52:00,57.0,48.0,30.37,NNW,333,5.0,10.0,71,0.00,,,0.00,weatherlink.com 1.10,2013-05-25 22:52:00,
2013-05-25 18:07:00,56.0,47.0,30.37,North,4,5.0,10.0,71,0.00,,,0.00,weatherlink.com 1.10,2013-05-25 23:07:00,
2013-05-25 18:22:00,55.3,46.0,30.36,North,349,6.0,9.0,71,0.00,,,0.00,weatherlink.com 1.10,2013-05-25 23:22:00,
2013-05-25 18:37:00,54.7,46.0,30.37,NW,315,5.0,8.0,72,0.00,,,0.00,weatherlink.com 1.10,2013-05-25 23:37:00,
2013-05-25 18:52:00,54.2,45.0,30.37,North,356,7.0,8.0,70,0.00,,,0.00,weatherlink.com 1.10,2013-05-25 23:52:00,
2013-05-25 19:07:00,53.8,44.0,30.36,NNW,329,5.0,7.0,70,0.00,,,0.00,weatherlink.com 1.10,2013-05-26 00:07:00,
2013-05-25 19:22:00,53.3,44.0,30.36,NNW,347,4.0,8.0,70,0.00,,,0.00,weatherlink.com 1.10,2013-05-26 00:22:00,
2013-05-25 19:37:00,52.8,43.0,30.37,North,9,7.0,8.0,70,0.00,,,0.00,weatherlink.com 1.10,2013-05-26 00:37:00,
2013-05-25 19:52:00,52.6,43.0,30.36,North,6,5.0,6.0,71,0.00,,,0.00,weatherlink.com 1.10,2013-05-26 00:52:00,
2013-05-25 20:07:00,52.2,43.0,30.36,North,8,6.0,9.0,71,0.00,,,0.00,weatherlink.com 1.10,2013-05-26 01:07:00,
2013-05-25 20:22:00,51.9,43.0,30.37,NNW,337,5.0,8.0,73,0.00,,,0.00,weatherlink.com 1.10,2013-05-26 01:22:00,
2013-05-25 20:37:00,51.5,43.0,30.37,NNW,345,3.0,8.0,74,0.00,,,0.00,weatherlink.com 1.10,2013-05-26 01:37:00,
2013-05-25 20:52:00,51.2,42.0,30.37,NNW,347,3.0,8.0,72,0.00,,,0.00,weatherlink.com 1.10,2013-05-26 01:52:00,
2013-05-25 21:07:00,51.0,43.0,30.37,North,4,4.0,7.0,73,0.00,,,0.00,weatherlink.com 1.10,2013-05-26 02:07:00,
2013-05-25 21:22:00,50.7,43.0,30.38,NNW,348,3.0,4.0,74,0.00,,,0.00,weatherlink.com 1.10,2013-05-26 02:22:00,
2013-05-25 21:37:00,50.4,42.0,30.38,NNW,334,2.0,5.0,74,0.00,,,0.00,weatherlink.com 1.10,2013-05-26 02:37:00,
2013-05-25 21:52:00,50.1,42.0,30.39,NNW,345,2.0,5.0,75,0.00,,,0.00,weatherlink.com 1.10,2013-05-26 02:52:00,
2013-05-25 22:07:00,49.6,42.0,30.39,NW,320,2.0,4.0,75,0.00,,,0.00,weatherlink.com 1.10,2013-05-26 03:07:00,
2013-05-25 22:22:00,49.5,42.0,30.39,North,349,4.0,5.0,75,0.00,,,0.00,weatherlink.com 1.10,2013-05-26 03:22:00,
2013-05-25 22:37:00,49.3,42.0,30.39,NNW,345,2.0,5.0,77,0.00,,,0.00,weatherlink.com 1.10,2013-05-26 03:37:00,
2013-05-25 22:52:00,48.9,43.0,30.39,NW,326,3.0,6.0,79,0.00,,,0.00,weatherlink.com 1.10,2013-05-26 03:52:00,
2013-05-25 23:07:00,48.3,42.0,30.39,NW,320,5.0,6.0,80,0.00,,,0.00,weatherlink.com 1.10,2013-05-26 04:07:00,
2013-05-25 23:22:00,47.8,42.0,30.39,NNW,337,2.0,4.0,81,0.00,,,0.00,weatherlink.com 1.10,2013-05-26 04:22:00,
2013-05-25 23:37:00,47.6,42.0,30.39,NNE,21,4.0,4.0,81,0.00,,,0.00,weatherlink.com 1.10,2013-05-26 04:37:00,
2013-05-25 23:52:00,47.5,42.0,30.39,North,357,1.0,4.0,82,0.00,,,0.00,weatherlink.com 1.10,2013-05-26 04:52:00,